Time;durP1;ratioP1;P1;durP2;ratioP2;P2;SDS_P1;SDS_P2;PMS_P1;PMS_P2;Temp;Humidity;BMP_temperature;BMP_pressure;BME280_temperature;BME280_humidity;BME280_pressure;Samples;Min_cycle;Max_cycle;Signal;HPM_P1;HPM_P2
2022/12/24 00:00:57;;;;;;;1999.90;999.90;;;;;;;10.29;100.00;93308.69;5014837;28;20214;-64
2022/12/24 00:03:23;;;;;;;1999.90;999.90;;;;;;;10.23;100.00;93332.31;5015284;28;20344;-66
2022/12/24 00:05:48;;;;;;;1999.90;999.90;;;;;;;10.25;100.00;93329.91;5015094;28;20261;-63
2022/12/24 00:08:14;;;;;;;1999.90;999.90;;;;;;;10.28;100.00;93350.81;5014750;28;20254;-64
2022/12/24 00:10:39;;;;;;;1999.90;999.90;;;;;;;10.34;100.00;93365.41;5015106;28;20171;-63
2022/12/24 00:13:04;;;;;;;1999.90;999.90;;;;;;;10.40;100.00;93401.78;5015057;28;20179;-63
2022/12/24 00:15:30;;;;;;;1999.90;999.90;;;;;;;10.44;100.00;93440.59;5014655;28;20188;-62
2022/12/24 00:17:55;;;;;;;1999.90;999.90;;;;;;;10.50;100.00;93482.47;5014244;28;20175;-63
2022/12/24 00:20:20;;;;;;;1999.90;999.90;;;;;;;10.63;100.00;93532.25;5014470;28;20258;-66
2022/12/24 00:22:46;;;;;;;1999.90;999.90;;;;;;;10.61;100.00;93570.13;5014726;28;20187;-65
2022/12/24 00:25:11;;;;;;;1999.90;999.90;;;;;;;10.56;100.00;93611.66;5014492;28;20195;-65
2022/12/24 00:27:36;;;;;;;1999.90;999.90;;;;;;;10.57;100.00;93640.47;5014424;28;20194;-65
2022/12/24 00:30:02;;;;;;;1999.90;999.90;;;;;;;10.55;100.00;93670.16;5015310;28;20168;-64
2022/12/24 00:32:27;;;;;;;1999.90;999.90;;;;;;;10.53;100.00;93694.44;5014230;28;20172;-65
2022/12/24 00:34:53;;;;;;;1999.90;999.90;;;;;;;10.49;100.00;93712.91;5014902;28;20212;-64
2022/12/24 00:37:18;;;;;;;1999.90;999.90;;;;;;;10.52;100.00;93736.59;5014725;28;20172;-65
2022/12/24 00:39:43;;;;;;;1999.90;999.90;;;;;;;10.53;100.00;93770.84;5014113;28;20201;-64
2022/12/24 00:42:09;;;;;;;1999.90;999.90;;;;;;;10.58;100.00;93822.13;5014195;28;20205;-66
2022/12/24 00:44:34;;;;;;;1999.90;999.90;;;;;;;10.55;100.00;93866.69;5014936;28;20182;-65
2022/12/24 00:46:59;;;;;;;1999.90;999.90;;;;;;;10.54;100.00;93892.47;5014172;28;20194;-65
2022/12/24 00:49:25;;;;;;;1999.90;999.90;;;;;;;10.58;100.00;93912.97;5013718;28;20171;-65
2022/12/24 00:51:50;;;;;;;1999.90;999.90;;;;;;;10.54;100.00;93919.75;5014052;28;20588;-65
2022/12/24 00:54:15;;;;;;;1999.90;999.90;;;;;;;10.54;100.00;93952.50;5014064;28;20199;-65
2022/12/24 00:56:41;;;;;;;1999.90;999.90;;;;;;;10.59;100.00;93957.44;5013954;28;20172;-65
2022/12/24 00:59:06;;;;;;;1999.90;999.90;;;;;;;10.60;100.00;93972.59;5013925;28;20595;-64
2022/12/24 01:01:31;;;;;;;1999.90;999.90;;;;;;;10.59;100.00;93990.19;5013944;28;20227;-61
2022/12/24 01:06:41;;;;;;;1999.90;999.90;;;;;;;10.62;100.00;94006.44;5015439;28;20234;-61
2022/12/24 01:09:06;;;;;;;1999.90;999.90;;;;;;;10.63;100.00;94015.41;5014403;28;20267;-61
2022/12/24 01:11:31;;;;;;;1999.90;999.90;;;;;;;10.62;100.00;94036.47;5013732;28;20180;-61
2022/12/24 01:13:57;;;;;;;1999.90;999.90;;;;;;;10.65;100.00;94045.75;5013210;28;20235;-61
2022/12/24 01:16:22;;;;;;;1999.90;999.90;;;;;;;10.70;100.00;94050.69;5013787;28;20175;-62
2022/12/24 01:18:47;;;;;;;1999.90;999.90;;;;;;;10.66;100.00;94058.97;5014239;28;20230;-67
2022/12/24 01:21:13;;;;;;;1999.90;999.90;;;;;;;10.62;100.00;94057.53;5014449;28;20249;-68
2022/12/24 01:23:39;;;;;;;1999.90;999.90;;;;;;;10.59;100.00;94058.44;5013615;28;20184;-65
2022/12/24 01:26:04;;;;;;;1999.90;999.90;;;;;;;10.55;100.00;94074.91;5013435;28;20226;-65
2022/12/24 01:28:31;;;;;;;1999.90;999.90;;;;;;;10.49;100.00;94084.06;5013430;28;20178;-65
2022/12/24 01:30:56;;;;;;;1999.90;999.90;;;;;;;10.41;100.00;94101.84;5013766;28;20167;-64
2022/12/24 01:33:21;;;;;;;1999.90;999.90;;;;;;;10.35;100.00;94101.63;5013353;28;20184;-65
2022/12/24 01:35:47;;;;;;;1999.90;999.90;;;;;;;10.32;100.00;94098.97;5014265;28;20242;-62
2022/12/24 01:38:12;;;;;;;1999.90;999.90;;;;;;;10.31;100.00;94102.91;5014067;28;20171;-66
2022/12/24 01:43:27;;;;;;;1999.90;999.90;;;;;;;10.28;100.00;94118.19;5014843;28;20175;-65
2022/12/24 01:45:57;;;;;;;1999.90;999.90;;;;;;;10.26;100.00;94123.28;5013695;28;20176;-64
2022/12/24 01:48:25;;;;;;;1999.90;999.90;;;;;;;10.21;100.00;94125.78;5014436;28;20225;-65
2022/12/24 01:50:56;;;;;;;1999.90;999.90;;;;;;;10.20;100.00;94116.09;5013525;28;20218;-66
2022/12/24 01:53:22;;;;;;;1999.90;999.90;;;;;;;10.19;100.00;94123.50;5013801;28;20172;-66
2022/12/24 01:55:49;;;;;;;1999.90;999.90;;;;;;;10.20;100.00;94125.00;5014357;28;20262;-63
2022/12/24 01:58:16;;;;;;;1999.90;999.90;;;;;;;10.21;100.00;94120.34;5014010;28;20211;-63
2022/12/24 02:00:42;;;;;;;1999.90;999.90;;;;;;;10.22;100.00;94128.09;5013198;28;20199;-63
2022/12/24 02:03:08;;;;;;;1999.90;999.90;;;;;;;10.24;100.00;94130.38;5016469;28;20198;-62
2022/12/24 02:05:50;;;;;;;1999.90;999.90;;;;;;;10.30;100.00;94128.66;5016758;28;20227;-63
2022/12/24 02:08:16;;;;;;;1999.90;999.90;;;;;;;10.41;100.00;94168.09;5017449;28;20206;-63
2022/12/24 02:10:43;;;;;;;1999.90;999.90;;;;;;;10.43;100.00;94175.84;5016721;28;20179;-62
2022/12/24 02:13:09;;;;;;;1999.90;999.90;;;;;;;10.41;100.00;94205.56;5017464;28;20179;-64
2022/12/24 02:15:55;;;;;;;1999.90;999.90;;;;;;;10.36;100.00;94225.16;5016849;28;20175;-60
2022/12/24 02:18:56;;;;;;;1999.90;999.90;;;;;;;10.41;100.00;94254.66;5016933;28;20172;-60
2022/12/24 02:21:47;;;;;;;1999.90;999.90;;;;;;;10.44;100.00;94281.06;4985430;28;20227;-60
2022/12/24 02:24:25;;;;;;;1999.90;999.90;;;;;;;10.42;100.00;94306.09;5008836;28;20191;-60
2022/12/24 02:27:09;;;;;;;1999.90;999.90;;;;;;;10.42;100.00;94316.25;5017165;28;20277;-60
2022/12/24 02:29:59;;;;;;;1999.90;999.90;;;;;;;10.36;100.00;94339.75;5017068;28;20609;-66
2022/12/24 02:32:34;;;;;;;1999.90;999.90;;;;;;;10.40;100.00;94352.13;5016736;28;20270;-61
2022/12/24 02:35:43;;;;;;;1999.90;999.90;;;;;;;10.35;100.00;94368.25;5016360;28;20171;-60
2022/12/24 02:38:23;;;;;;;1999.90;999.90;;;;;;;10.38;100.00;94391.97;4988830;28;20190;-60
2022/12/24 02:40:54;;;;;;;1999.90;999.90;;;;;;;10.34;100.00;94415.84;5016901;28;20226;-60
2022/12/24 02:43:24;;;;;;;1999.90;999.90;;;;;;;10.30;100.00;94437.00;5016968;28;20217;-60
2022/12/24 02:45:55;;;;;;;1999.90;999.90;;;;;;;10.36;100.00;94471.53;5016706;28;20169;-61
2022/12/24 02:48:23;;;;;;;1999.90;999.90;;;;;;;10.35;100.00;94485.59;5015988;28;20290;-64
2022/12/24 02:51:21;;;;;;;1999.90;999.90;;;;;;;10.32;100.00;94502.81;5016442;28;20171;-64
2022/12/24 02:53:46;;;;;;;1999.90;999.90;;;;;;;10.28;100.00;94513.03;5004890;28;20207;-66
2022/12/24 02:56:30;;;;;;;1999.90;999.90;;;;;;;10.33;100.00;94542.53;5015982;28;20207;-67
2022/12/24 02:59:26;;;;;;;1999.90;999.90;;;;;;;10.29;100.00;94569.13;5016437;28;20270;-66
2022/12/24 03:02:10;;;;;;;1999.90;999.90;;;;;;;10.29;100.00;94580.84;5015965;28;20199;-67
2022/12/24 03:05:13;;;;;;;1999.90;999.90;;;;;;;10.32;100.00;94584.69;5015726;28;20199;-67
2022/12/24 03:08:03;;;;;;;1999.90;999.90;;;;;;;10.32;100.00;94595.59;5015909;28;20202;-62
2022/12/24 03:10:52;;;;;;;1999.90;999.90;;;;;;;10.39;100.00;94600.91;5015640;28;20175;-65
2022/12/24 03:13:19;;;;;;;1999.90;999.90;;;;;;;10.37;100.00;94608.75;5015519;28;20241;-66
2022/12/24 03:15:46;;;;;;;1999.90;999.90;;;;;;;10.44;100.00;94625.75;5015378;28;20179;-65
2022/12/24 03:18:14;;;;;;;1999.90;999.90;;;;;;;10.45;100.00;94634.72;5016278;28;20172;-66
2022/12/24 03:20:51;;;;;;;1999.90;999.90;;;;;;;10.45;100.00;94664.75;5016123;28;20213;-65
2022/12/24 03:23:17;;;;;;;1999.90;999.90;;;;;;;10.52;100.00;94672.78;5016197;28;20232;-66
2022/12/24 03:25:43;;;;;;;1999.90;999.90;;;;;;;10.47;100.00;94673.25;5016151;28;20270;-68
2022/12/24 03:28:13;;;;;;;1999.90;999.90;;;;;;;10.46;100.00;94666.28;5015618;28;20203;-63
2022/12/24 03:30:43;;;;;;;1999.90;999.90;;;;;;;10.47;100.00;94665.06;5015500;28;20179;-63
2022/12/24 03:33:10;;;;;;;1999.90;999.90;;;;;;;10.45;100.00;94678.38;5015932;28;20176;-62
2022/12/24 03:35:35;;;;;;;1999.90;999.90;;;;;;;10.54;100.00;94671.19;5015319;28;20180;-63
2022/12/24 03:38:00;;;;;;;1999.90;999.90;;;;;;;10.47;100.00;94695.09;5015228;28;20215;-63
2022/12/24 03:40:26;;;;;;;1999.90;999.90;;;;;;;10.49;100.00;94700.91;5015296;28;20203;-63
2022/12/24 03:42:51;;;;;;;1999.90;999.90;;;;;;;10.52;100.00;94713.75;5015449;28;20176;-63
2022/12/24 03:45:17;;;;;;;1999.90;999.90;;;;;;;10.50;100.00;94711.44;5015118;28;20246;-60
2022/12/24 03:47:43;;;;;;;1999.90;999.90;;;;;;;10.51;100.00;94739.47;5015100;28;20179;-64
2022/12/24 03:50:08;;;;;;;1999.90;999.90;;;;;;;10.56;100.00;94730.81;5014723;28;20175;-63
2022/12/24 03:52:33;;;;;;;1999.90;999.90;;;;;;;10.50;100.00;94729.75;5015132;28;20270;-64
2022/12/24 03:54:59;;;;;;;1999.90;999.90;;;;;;;10.50;100.00;94716.88;5015076;28;20167;-64
2022/12/24 03:57:24;;;;;;;1999.90;999.90;;;;;;;10.49;100.00;94703.66;5015351;28;20185;-63
2022/12/24 03:59:50;;;;;;;1999.90;999.90;;;;;;;10.44;100.00;94706.84;5014919;28;20176;-63
2022/12/24 04:02:15;;;;;;;1999.90;999.90;;;;;;;10.50;100.00;94719.63;5014819;28;20207;-68
2022/12/24 04:04:40;;;;;;;1999.90;999.90;;;;;;;10.46;100.00;94726.31;5014600;28;20237;-64
2022/12/24 04:07:06;;;;;;;1999.90;999.90;;;;;;;10.49;100.00;94742.63;5014944;28;20211;-65
2022/12/24 04:09:31;;;;;;;1999.90;999.90;;;;;;;10.52;100.00;94746.50;5015231;28;20178;-65
2022/12/24 04:11:57;;;;;;;1999.90;999.90;;;;;;;10.57;100.00;94754.19;5015300;28;20184;-64
2022/12/24 04:14:22;;;;;;;1999.90;999.90;;;;;;;10.60;100.00;94764.28;5015272;28;20262;-65
2022/12/24 04:16:48;;;;;;;1999.90;999.90;;;;;;;10.65;100.00;94774.72;5015112;28;20262;-65
2022/12/24 04:19:13;;;;;;;1999.90;999.90;;;;;;;10.65;100.00;94805.53;5014802;28;20180;-65
2022/12/24 04:21:39;;;;;;;1999.90;999.90;;;;;;;10.70;100.00;94807.00;5014577;28;20272;-64
2022/12/24 04:24:04;;;;;;;1999.90;999.90;;;;;;;10.76;100.00;94821.72;5014542;28;20176;-67
2022/12/24 04:26:30;;;;;;;1999.90;999.90;;;;;;;10.79;100.00;94831.81;5014502;28;20236;-66
2022/12/24 04:28:55;;;;;;;1999.90;999.90;;;;;;;10.72;100.00;94843.63;5014517;28;20206;-66
2022/12/24 04:31:20;;;;;;;1999.90;999.90;;;;;;;10.71;100.00;94857.69;5014296;28;20176;-66
2022/12/24 04:33:46;;;;;;;1999.90;999.90;;;;;;;10.68;100.00;94855.78;5014335;28;20176;-66
2022/12/24 04:36:14;;;;;;;1999.90;999.90;;;;;;;10.71;100.00;94871.34;5014296;28;20184;-69
2022/12/24 04:38:39;;;;;;;1999.90;999.90;;;;;;;10.76;100.00;94876.31;5014063;28;20183;-66
2022/12/24 04:41:09;;;;;;;1999.90;999.90;;;;;;;10.76;100.00;94876.31;5014266;28;20225;-67
2022/12/24 04:43:34;;;;;;;1999.90;999.90;;;;;;;10.80;100.00;94871.56;5014092;28;20176;-60
2022/12/24 04:46:09;;;;;;;1999.90;999.90;;;;;;;10.74;100.00;94862.34;5014000;28;20183;-60
2022/12/24 04:48:35;;;;;;;1999.90;999.90;;;;;;;10.75;100.00;94864.66;5013799;28;20185;-60
2022/12/24 04:51:03;;;;;;;1999.90;999.90;;;;;;;10.75;100.00;94880.25;5014571;28;20287;-60
2022/12/24 04:53:29;;;;;;;1999.90;999.90;;;;;;;10.76;100.00;94884.53;5014057;28;20180;-60
2022/12/24 04:55:54;;;;;;;1999.90;999.90;;;;;;;10.72;100.00;94894.72;5013623;28;20172;-60
2022/12/24 04:58:20;;;;;;;1999.90;999.90;;;;;;;10.72;100.00;94897.47;5014295;28;20271;-61
2022/12/24 05:00:45;;;;;;;1999.90;999.90;;;;;;;10.71;100.00;94890.47;5014459;28;20208;-62
2022/12/24 05:03:10;;;;;;;1999.90;999.90;;;;;;;10.71;100.00;94902.16;5014403;28;20202;-63
2022/12/24 05:05:36;;;;;;;1999.90;999.90;;;;;;;10.69;100.00;94892.81;5013470;28;20293;-63
2022/12/24 05:08:01;;;;;;;1999.90;999.90;;;;;;;10.71;100.00;94895.94;5013954;28;20199;-63
2022/12/24 05:10:27;;;;;;;1999.90;999.90;;;;;;;10.74;100.00;94906.78;5013950;28;20272;-62
2022/12/24 05:12:52;;;;;;;1999.90;999.90;;;;;;;10.75;100.00;94907.56;5014343;28;20180;-64
2022/12/24 05:15:18;;;;;;;1999.90;999.90;;;;;;;10.79;100.00;94913.72;5013469;28;20184;-67
2022/12/24 05:17:43;;;;;;;1999.90;999.90;;;;;;;10.80;100.00;94918.00;5013693;28;20239;-65
2022/12/24 05:20:08;;;;;;;1999.90;999.90;;;;;;;10.80;100.00;94920.72;5013677;28;20179;-60
2022/12/24 05:28:02;;;;;;;1999.90;999.90;;;;;;;10.78;100.00;94928.59;5014986;28;20223;-61
2022/12/24 05:30:27;;;;;;;1999.90;999.90;;;;;;;10.74;100.00;94949.72;5013762;28;20183;-59
2022/12/24 05:32:52;;;;;;;1999.90;999.90;;;;;;;10.72;100.00;94935.69;5013345;28;20207;-62
2022/12/24 05:35:18;;;;;;;1999.90;999.90;;;;;;;10.74;100.00;94947.75;5014904;28;20222;-65
2022/12/24 05:37:43;;;;;;;1999.90;999.90;;;;;;;10.69;100.00;94941.97;5017657;28;20207;-62
2022/12/24 05:40:09;;;;;;;1999.90;999.90;;;;;;;10.71;100.00;94928.69;5017864;28;20183;-62
2022/12/24 05:42:34;;;;;;;1999.90;999.90;;;;;;;10.71;100.00;94945.09;5017324;28;20268;-62
2022/12/24 05:44:59;;;;;;;1999.90;999.90;;;;;;;10.74;100.00;94955.19;5017545;28;20204;-62
2022/12/24 05:47:25;;;;;;;1999.90;999.90;;;;;;;10.72;100.00;94973.94;5017853;28;20203;-62
2022/12/24 05:49:50;;;;;;;1999.90;999.90;;;;;;;10.70;100.00;94970.84;5017944;28;20185;-62
2022/12/24 05:52:15;;;;;;;1999.90;999.90;;;;;;;10.72;100.00;94980.16;5018307;28;20279;-65
2022/12/24 05:54:41;;;;;;;1999.90;999.90;;;;;;;10.73;100.00;94989.13;5017576;28;20184;-60
2022/12/24 05:57:07;;;;;;;1999.90;999.90;;;;;;;10.74;100.00;94987.97;5017152;28;20187;-64
2022/12/24 05:59:32;;;;;;;1999.90;999.90;;;;;;;10.77;100.00;94993.34;5017029;28;20262;-64
2022/12/24 06:01:57;;;;;;;1999.90;999.90;;;;;;;10.74;100.00;94993.41;5017116;28;20203;-64
2022/12/24 06:04:23;;;;;;;1999.90;999.90;;;;;;;10.72;100.00;94987.59;5017087;28;20191;-64
2022/12/24 06:06:48;;;;;;;1999.90;999.90;;;;;;;10.72;100.00;94977.44;5016666;28;20182;-63
2022/12/24 06:09:14;;;;;;;1999.90;999.90;;;;;;;10.77;100.00;94996.09;5017858;28;20179;-64
2022/12/24 06:11:39;;;;;;;1999.90;999.90;;;;;;;10.77;100.00;95007.00;5016906;28;20179;-67
2022/12/24 06:14:04;;;;;;;1999.90;999.90;;;;;;;10.77;100.00;95006.22;5017540;28;20171;-60
2022/12/24 06:16:30;;;;;;;1999.90;999.90;;;;;;;10.78;100.00;95005.06;5017025;28;20176;-60
2022/12/24 06:18:55;;;;;;;1999.90;999.90;;;;;;;10.75;100.00;95011.34;5016795;28;20187;-61
2022/12/24 06:21:21;;;;;;;1999.90;999.90;;;;;;;10.79;100.00;95012.06;5017200;28;20207;-60
2022/12/24 06:23:47;;;;;;;1999.90;999.90;;;;;;;10.74;100.00;95016.03;5016639;28;20183;-60
2022/12/24 06:26:15;;;;;;;1999.90;999.90;;;;;;;10.72;100.00;95001.25;5016563;28;20176;-60
2022/12/24 06:28:42;;;;;;;1999.90;999.90;;;;;;;10.68;100.00;94995.06;5016615;28;20182;-61
2022/12/24 06:31:11;;;;;;;1999.90;999.90;;;;;;;10.67;100.00;94988.81;5016694;28;20186;-65
2022/12/24 06:33:37;;;;;;;1999.90;999.90;;;;;;;10.63;100.00;94992.81;5016633;28;20211;-65
2022/12/24 06:36:08;;;;;;;1999.90;999.90;;;;;;;10.62;100.00;94996.69;5016578;28;20180;-65
2022/12/24 06:38:34;;;;;;;1999.90;999.90;;;;;;;10.65;100.00;94993.16;5016892;28;20571;-65
2022/12/24 06:41:05;;;;;;;1999.90;999.90;;;;;;;10.60;100.00;95001.81;5016345;28;20265;-65
2022/12/24 06:43:30;;;;;;;1999.90;999.90;;;;;;;10.56;100.00;95009.28;5016401;28;20175;-64
2022/12/24 06:45:55;;;;;;;1999.90;999.90;;;;;;;10.52;100.00;95011.31;5016683;28;20233;-65
2022/12/24 06:48:21;;;;;;;1999.90;999.90;;;;;;;10.53;100.00;95021.03;5015012;28;20226;-67
2022/12/24 06:50:46;;;;;;;1999.90;999.90;;;;;;;10.52;100.00;95030.41;5016033;28;20181;-61
2022/12/24 06:53:11;;;;;;;1999.90;999.90;;;;;;;10.50;100.00;95044.47;5016281;28;20270;-62
2022/12/24 06:55:37;;;;;;;1999.90;999.90;;;;;;;10.47;100.00;95053.47;5016913;28;20183;-62
2022/12/24 06:58:03;;;;;;;1999.90;999.90;;;;;;;10.45;100.00;95058.56;5015793;28;20180;-62
2022/12/24 07:00:28;;;;;;;1999.90;999.90;;;;;;;10.41;100.00;95073.47;5016473;28;20200;-61
2022/12/24 07:02:53;;;;;;;1999.90;999.90;;;;;;;10.40;100.00;95083.59;5016074;28;20175;-61
2022/12/24 07:05:19;;;;;;;1999.90;999.90;;;;;;;10.39;100.00;95082.06;5015723;28;20258;-63
2022/12/24 07:07:44;;;;;;;1999.90;999.90;;;;;;;10.35;100.00;95088.72;5016457;28;20179;-67
2022/12/24 07:10:12;;;;;;;1999.90;999.90;;;;;;;10.31;100.00;95083.31;5016911;28;20178;-70
2022/12/24 07:12:38;;;;;;;1999.90;999.90;;;;;;;10.25;100.00;95092.34;5016319;28;20202;-70
2022/12/24 07:15:04;;;;;;;1999.90;999.90;;;;;;;10.25;100.00;95087.69;5015795;28;20177;-70
2022/12/24 07:17:29;;;;;;;1999.90;999.90;;;;;;;10.25;100.00;95098.59;5015601;28;20182;-70
2022/12/24 07:19:54;;;;;;;1999.90;999.90;;;;;;;10.21;100.00;95105.25;5015601;28;20183;-72
2022/12/24 07:22:20;;;;;;;1999.90;999.90;;;;;;;10.19;100.00;95104.91;5016574;28;20207;-70
2022/12/24 07:24:45;;;;;;;1999.90;999.90;;;;;;;10.17;100.00;95108.06;5016137;28;20176;-62
2022/12/24 07:27:11;;;;;;;1999.90;999.90;;;;;;;10.19;100.00;95121.28;5016493;28;20266;-70
2022/12/24 07:29:37;;;;;;;1999.90;999.90;;;;;;;10.13;100.00;95120.97;5015081;28;20189;-71
2022/12/24 07:32:03;;;;;;;1999.90;999.90;;;;;;;10.18;100.00;95136.09;5016499;28;20230;-71
2022/12/24 07:34:28;;;;;;;1999.90;999.90;;;;;;;10.17;100.00;95131.81;5015659;28;20284;-71
2022/12/24 07:36:53;;;;;;;1999.90;999.90;;;;;;;10.12;100.00;95140.47;5015830;28;20179;-70
2022/12/24 07:39:19;;;;;;;1999.90;999.90;;;;;;;10.10;100.00;95133.44;5015794;28;20179;-69
2022/12/24 07:41:44;;;;;;;1999.90;999.90;;;;;;;10.13;100.00;95144.72;5016579;28;20196;-68
2022/12/24 07:44:13;;;;;;;1999.90;999.90;;;;;;;10.14;100.00;95150.53;5014815;28;20187;-64
2022/12/24 07:46:39;;;;;;;1999.90;999.90;;;;;;;10.17;100.00;95159.09;5015182;28;20183;-69
2022/12/24 07:49:04;;;;;;;1999.90;999.90;;;;;;;10.20;100.00;95171.94;5015278;28;20172;-69
2022/12/24 07:51:30;;;;;;;1999.90;999.90;;;;;;;10.18;100.00;95169.63;5014898;28;20180;-69
2022/12/24 07:53:55;;;;;;;1999.90;999.90;;;;;;;10.21;100.00;95184.41;5014770;28;20192;-70
2022/12/24 07:56:21;;;;;;;1999.90;999.90;;;;;;;10.16;100.00;95182.13;5014836;28;20262;-68
2022/12/24 07:58:46;;;;;;;1999.90;999.90;;;;;;;10.21;100.00;95184.41;5015086;28;20179;-68
2022/12/24 08:01:11;;;;;;;1999.90;999.90;;;;;;;10.19;100.00;95189.50;5014962;28;20200;-63
2022/12/24 08:03:37;;;;;;;1999.90;999.90;;;;;;;10.22;100.00;95191.41;5014821;28;20203;-62
2022/12/24 08:06:03;;;;;;;1999.90;999.90;;;;;;;10.19;100.00;95203.16;5014701;28;20224;-73
2022/12/24 08:08:29;;;;;;;1999.90;999.90;;;;;;;10.22;100.00;95213.22;5014757;28;20185;-70
2022/12/24 08:11:00;;;;;;;1999.90;999.90;;;;;;;10.26;100.00;95209.28;5015362;28;20193;-69
2022/12/24 08:13:25;;;;;;;1999.90;999.90;;;;;;;10.25;100.00;95209.69;5014421;28;20203;-70
2022/12/24 08:15:51;;;;;;;1999.90;999.90;;;;;;;10.31;100.00;95221.72;5014913;28;20192;-72
2022/12/24 08:18:16;;;;;;;1999.90;999.90;;;;;;;10.29;100.00;95224.06;5014362;28;20175;-70
2022/12/24 08:20:41;;;;;;;1999.90;999.90;;;;;;;10.27;100.00;95231.91;5014299;28;20199;-62
2022/12/24 08:23:07;;;;;;;1999.90;999.90;;;;;;;10.28;100.00;95231.50;5014614;28;20177;-61
2022/12/24 08:25:33;;;;;;;1999.90;999.90;;;;;;;10.28;100.00;95250.63;5014538;28;20221;-61
2022/12/24 08:27:59;;;;;;;1999.90;999.90;;;;;;;10.24;100.00;95244.41;5014047;28;20206;-61
2022/12/24 08:30:24;;;;;;;1999.90;999.90;;;;;;;10.29;100.00;95240.44;5014077;28;20190;-62
2022/12/24 08:32:50;;;;;;;1999.90;999.90;;;;;;;10.33;100.00;95241.19;5014377;28;20179;-62
2022/12/24 08:35:15;;;;;;;1999.90;999.90;;;;;;;10.35;100.00;95244.31;5015159;28;20258;-62
2022/12/24 08:37:41;;;;;;;1999.90;999.90;;;;;;;10.31;100.00;95246.28;5014758;28;20643;-61
2022/12/24 08:40:07;;;;;;;1999.90;999.90;;;;;;;10.39;100.00;95240.38;5014352;28;20572;-71
2022/12/24 08:42:32;;;;;;;1999.90;999.90;;;;;;;10.35;100.00;95238.84;5013819;28;20207;-70
2022/12/24 08:44:58;;;;;;;1999.90;999.90;;;;;;;10.34;100.00;95237.31;5015034;28;20233;-71
2022/12/24 08:47:24;;;;;;;1999.90;999.90;;;;;;;10.45;100.00;95251.63;5013814;28;20259;-71
2022/12/24 08:49:49;;;;;;;1999.90;999.90;;;;;;;10.43;100.00;95251.25;5014268;28;20202;-70
2022/12/24 08:52:14;;;;;;;1999.90;999.90;;;;;;;10.39;100.00;95261.41;5013678;28;20172;-71
2022/12/24 08:54:40;;;;;;;1999.90;999.90;;;;;;;10.39;100.00;95258.69;5014650;28;20198;-71
2022/12/24 08:57:05;;;;;;;1999.90;999.90;;;;;;;10.40;100.00;95254.78;5014268;28;20179;-61
2022/12/24 08:59:30;;;;;;;1999.90;999.90;;;;;;;10.44;100.00;95269.16;5013990;28;20190;-61
2022/12/24 09:01:56;;;;;;;1999.90;999.90;;;;;;;10.46;100.00;95272.28;5014470;28;20211;-63
2022/12/24 09:04:21;;;;;;;1999.90;999.90;;;;;;;10.51;100.00;95290.94;5013654;28;20226;-62
2022/12/24 09:06:46;;;;;;;1999.90;999.90;;;;;;;10.49;100.00;95296.03;5014060;28;20236;-62
2022/12/24 09:09:12;;;;;;;1999.90;999.90;;;;;;;10.52;100.00;95289.78;5014072;28;20175;-61
2022/12/24 09:11:37;;;;;;;1999.90;999.90;;;;;;;10.56;100.00;95304.16;5013107;28;20175;-62
2022/12/24 09:14:02;;;;;;;1999.90;999.90;;;;;;;10.65;100.00;95304.44;5013868;28;20172;-62
2022/12/24 09:16:31;;;;;;;1999.90;999.90;;;;;;;10.65;100.00;95307.19;5013655;28;20194;-61
2022/12/24 09:18:57;;;;;;;1999.90;999.90;;;;;;;10.81;100.00;95310.16;5013828;28;20188;-63
2022/12/24 09:21:23;;;;;;;1999.90;999.90;;;;;;;10.94;100.00;95314.69;5013515;28;20242;-62
2022/12/24 09:23:48;;;;;;;1999.90;999.90;;;;;;;11.10;100.00;95328.53;5013510;28;20176;-62
2022/12/24 09:26:25;;;;;;;1999.90;999.90;;;;;;;11.20;100.00;95330.38;5014240;28;20167;-62
2022/12/24 09:28:51;;;;;;;1999.90;999.90;;;;;;;11.26;100.00;95331.47;5014113;28;20178;-62
2022/12/24 09:31:20;;;;;;;1999.90;999.90;;;;;;;11.37;100.00;95331.38;5013394;28;20200;-64
2022/12/24 09:33:47;;;;;;;1999.90;999.90;;;;;;;11.35;100.00;95336.44;5013286;28;20181;-62
2022/12/24 09:36:12;;;;;;;1999.90;999.90;;;;;;;11.31;100.00;95327.53;5013319;28;20173;-69
2022/12/24 09:38:39;;;;;;;1999.90;999.90;;;;;;;11.35;100.00;95328.25;5013785;28;20188;-68
2022/12/24 09:41:49;;;;;;;1999.90;999.90;;;;;;;11.28;100.00;95339.25;5013053;28;20201;-67
2022/12/24 09:44:29;;;;;;;1999.90;999.90;;;;;;;11.18;100.00;95334.72;5013551;28;20528;-67
2022/12/24 09:46:58;;;;;;;1999.90;999.90;;;;;;;11.19;100.00;95336.25;5014031;28;20191;-66
2022/12/24 09:49:27;;;;;;;1999.90;999.90;;;;;;;11.14;100.00;95328.53;5014022;28;20219;-69
2022/12/24 09:51:59;;;;;;;1999.90;999.90;;;;;;;11.12;100.00;95325.41;5013927;28;20183;-64
2022/12/24 09:54:28;;;;;;;1999.90;999.90;;;;;;;11.14;100.00;95328.53;5013901;28;20208;-69
2022/12/24 09:56:56;;;;;;;1999.90;999.90;;;;;;;11.19;100.00;95336.25;5013982;28;20174;-71
2022/12/24 09:59:24;;;;;;;1999.90;999.90;;;;;;;11.19;100.00;95336.25;5013284;28;20176;-70
2022/12/24 10:01:53;;;;;;;1999.90;999.90;;;;;;;11.24;100.00;95327.59;5013380;28;20276;-71
2022/12/24 10:04:21;;;;;;;1999.90;999.90;;;;;;;11.25;100.00;95323.72;5013191;28;20205;-73
2022/12/24 10:07:10;;;;;;;1999.90;999.90;;;;;;;11.09;100.00;95337.94;5013662;28;20204;-70
2022/12/24 10:10:08;;;;;;;1999.90;999.90;;;;;;;11.11;100.00;95319.16;5014231;28;20232;-63
2022/12/24 10:12:49;;;;;;;1999.90;999.90;;;;;;;11.11;100.00;95329.34;5013663;28;20274;-62
2022/12/24 10:15:29;;;;;;;1999.90;999.90;;;;;;;11.21;100.00;95333.88;5014612;28;20165;-76
2022/12/24 10:18:40;;;;;;;1999.90;999.90;;;;;;;11.47;100.00;95330.47;5013743;28;20210;-71
2022/12/24 10:21:15;;;;;;;1999.90;999.90;;;;;;;11.61;100.00;95327.53;4998025;28;20205;-73
2022/12/24 10:23:51;;;;;;;1999.90;999.90;;;;;;;11.72;100.00;95341.84;5015487;28;20183;-72
2022/12/24 10:26:26;;;;;;;1999.90;999.90;;;;;;;12.01;100.00;95337.53;5017228;28;20177;-72
2022/12/24 10:29:00;;;;;;;1999.90;999.90;;;;;;;12.03;100.00;95346.13;5017349;28;20175;-63
2022/12/24 10:31:30;;;;;;;1999.90;999.90;;;;;;;11.96;100.00;95346.22;5016601;28;20186;-71
2022/12/24 10:34:03;;;;;;;1999.90;999.90;;;;;;;11.96;100.00;95354.44;5016200;28;20166;-69
2022/12/24 10:36:30;;;;;;;1999.90;999.90;;;;;;;11.90;100.00;95353.34;5016996;28;20174;-67
2022/12/24 10:38:57;;;;;;;1999.90;999.90;;;;;;;11.89;100.00;95351.78;5016420;28;20189;-70
2022/12/24 10:41:25;;;;;;;1999.90;999.90;;;;;;;11.80;100.00;95348.81;5016220;28;20205;-68
2022/12/24 10:43:54;;;;;;;1999.90;999.90;;;;;;;11.78;100.00;95356.63;5016600;28;20178;-68
2022/12/24 10:46:38;;;;;;;1999.90;999.90;;;;;;;11.68;100.00;95341.13;5016341;28;20178;-74
2022/12/24 10:49:15;;;;;;;1999.90;999.90;;;;;;;11.51;100.00;95336.66;5016178;28;20177;-62
2022/12/24 10:51:57;;;;;;;1999.90;999.90;;;;;;;11.52;100.00;95341.72;5016250;28;20195;-62
2022/12/24 10:54:25;;;;;;;1999.90;999.90;;;;;;;11.44;100.00;95342.22;5016546;28;20168;-63
2022/12/24 10:56:56;;;;;;;1999.90;999.90;;;;;;;11.22;100.00;95347.13;5015836;28;20212;-62
2022/12/24 10:59:29;;;;;;;1999.90;999.90;;;;;;;11.38;100.00;95355.56;5016533;28;20207;-63
2022/12/24 11:01:57;;;;;;;1999.90;999.90;;;;;;;11.38;100.00;95349.31;5016610;28;20201;-62
2022/12/24 11:04:25;;;;;;;1999.90;999.90;;;;;;;11.38;100.00;95350.09;5015652;28;20196;-62